Hawthorne, Louisiana
Current Conditions -  °F | °C
As of 11:58 PM on Tuesday 21 Oct 2014 (Local Time) from KPOE Reporting Station
Clear Clear  
Wind Chill: 63°   Ceiling: Unl
Heat Index: 63°   Visibility: 10mi
Dew Point: 61°   Wind: 2mph
Humidity: 93%   Direction: 50°NE
Pressure: 30.05"   Gusts: NA
Location:  31.2063°N, 93.1344°W
Report Text: KPOE 220458Z AUTO 05002KT 10SM CLR 17/16 A3005 RMK AO2 SLP176 T01700159
Loading
Personal Weather Stations






























Interactive Weather Map
Tropical Storm Tracking
New forecast layout! Learn more

10-Day Weather Forecast

Advertisements
Track Severe Weather on mobile